createdAt,value
2022-08-27T00:01:59.279Z,17.4
2022-08-27T00:11:59.974Z,17.4
2022-08-27T00:22:00.279Z,17.5
2022-08-27T00:32:01.283Z,17.4
2022-08-27T00:42:02.167Z,17.4
2022-08-27T00:52:02.995Z,17.3
2022-08-27T01:02:03.941Z,17.4
2022-08-27T01:12:04.159Z,17.4
2022-08-27T01:22:05.211Z,17.3
2022-08-27T01:32:05.325Z,17.4
2022-08-27T01:42:06.252Z,17.4
2022-08-27T01:52:06.868Z,17.5
2022-08-27T02:02:07.801Z,17.5
2022-08-27T02:12:08.404Z,17.5
2022-08-27T02:22:09.428Z,17.5
2022-08-27T02:32:17.829Z,17.5
2022-08-27T02:42:10.634Z,17.5
2022-08-27T02:52:10.945Z,17.6
2022-08-27T03:02:11.845Z,17.6
2022-08-27T03:12:12.581Z,17.5
2022-08-27T03:22:13.288Z,17.6
2022-08-27T03:32:13.994Z,17.6
2022-08-27T03:42:14.244Z,17.6
2022-08-27T03:52:14.677Z,17.6
2022-08-27T04:02:15.674Z,17.5
2022-08-27T04:12:15.916Z,17.5
2022-08-27T04:22:16.955Z,17.5
2022-08-27T04:32:17.251Z,17.5
2022-08-27T04:42:17.549Z,17.5
2022-08-27T04:52:17.759Z,17.5
2022-08-27T05:02:18.544Z,17.4
2022-08-27T05:12:18.751Z,17.5
2022-08-27T05:22:19.512Z,17.5
2022-08-27T05:32:20.593Z,17.5
2022-08-27T05:42:21.142Z,17.5
2022-08-27T05:52:21.968Z,17.5
2022-08-27T06:02:22.149Z,17.5
2022-08-27T06:12:27.014Z,17.6
2022-08-27T06:22:23.088Z,17.6
2022-08-27T06:32:23.536Z,17.7
2022-08-27T06:42:24.318Z,17.7
2022-08-27T06:52:25.053Z,17.8
2022-08-27T07:02:25.967Z,17.9
2022-08-27T07:12:30.598Z,18
2022-08-27T07:32:30.461Z,18.3
2022-08-27T07:42:27.549Z,18.4
2022-08-27T07:52:27.898Z,18.3
2022-08-27T08:02:28.005Z,18.6
2022-08-27T08:12:28.689Z,19.2
2022-08-27T08:22:29.248Z,19.6
2022-08-27T08:32:29.388Z,19.7
2022-08-27T08:42:29.542Z,20
2022-08-27T08:52:31.028Z,20.1
2022-08-27T09:02:30.832Z,20.3
2022-08-27T09:12:31.203Z,20
2022-08-27T09:22:31.556Z,20.4
2022-08-27T09:32:32.315Z,20.8
2022-08-27T09:42:33.016Z,20.9
2022-08-27T09:52:33.417Z,20.9
2022-08-27T10:02:33.963Z,20.9
2022-08-27T10:02:55.887Z,20.8
2022-08-27T10:12:40.301Z,20.8
2022-08-27T10:22:40.732Z,21.1
2022-08-27T10:32:41.745Z,21.1
2022-08-27T10:42:42.182Z,21.2
2022-08-27T10:52:43.199Z,21.4
2022-08-27T11:02:43.860Z,21.4
2022-08-27T11:12:44.902Z,21.3
2022-08-27T11:22:45.260Z,21.5
2022-08-27T11:32:45.827Z,21.6
2022-08-27T11:42:46.046Z,21.4
2022-08-27T11:52:46.161Z,21.6
2022-08-27T12:02:46.371Z,21.7
2022-08-27T12:12:46.552Z,22.6
2022-08-27T12:22:46.766Z,22.7
2022-08-27T12:32:47.180Z,22.5
2022-08-27T12:52:48.848Z,22.2
2022-08-27T13:02:49.363Z,22.2
2022-08-27T13:12:49.925Z,22.1
2022-08-27T13:32:50.446Z,22.2
2022-08-27T13:42:51.115Z,22.4
2022-08-27T13:52:51.781Z,22.3
2022-08-27T14:02:55.638Z,22.3
2022-08-27T14:12:53.018Z,22.5
2022-08-27T14:22:53.827Z,22.9
2022-08-27T14:32:55.637Z,23.3
2022-08-27T14:42:55.481Z,22.9
2022-08-27T15:12:57.902Z,22.1
2022-08-27T15:22:58.306Z,22.1
2022-08-27T15:32:59.260Z,22
2022-08-27T15:42:59.640Z,22
2022-08-27T15:52:59.833Z,22
2022-08-27T16:03:00.676Z,22
2022-08-27T16:13:00.884Z,21.8
2022-08-27T16:23:01.901Z,21.7
2022-08-27T16:33:02.193Z,21.6
2022-08-27T16:43:03.189Z,21.6
2022-08-27T16:53:03.992Z,21.5
2022-08-27T17:03:04.606Z,21.4
2022-08-27T17:13:05.263Z,21.3
2022-08-27T17:23:05.487Z,21.3
2022-08-27T17:33:06.365Z,21.3
2022-08-27T17:43:06.494Z,21.1
2022-08-27T17:53:07.116Z,21
2022-08-27T18:03:07.642Z,21
2022-08-27T18:13:07.794Z,20.9
2022-08-27T18:23:08.551Z,20.8
2022-08-27T18:33:09.555Z,20.8
2022-08-27T18:43:10.429Z,20.7
2022-08-27T18:53:10.972Z,20.6
2022-08-27T19:03:11.816Z,20.6
2022-08-27T19:13:12.437Z,20.5
2022-08-27T19:23:12.696Z,20.4
2022-08-27T19:33:13.281Z,20.3
2022-08-27T19:43:13.762Z,20.3
2022-08-27T19:53:15.140Z,20.2
2022-08-27T20:03:14.581Z,20.2
2022-08-27T20:13:15.473Z,20.1
2022-08-27T20:23:16.263Z,20
2022-08-27T20:33:16.426Z,19.8
2022-08-27T20:43:16.697Z,19.7
2022-08-27T20:53:16.896Z,19.5
2022-08-27T21:03:17.052Z,19.3
2022-08-27T21:13:18.044Z,19.2
2022-08-27T21:23:18.389Z,19
2022-08-27T21:33:18.931Z,18.7
2022-08-27T21:43:19.920Z,18.5
2022-08-27T22:03:21.249Z,18
2022-08-27T22:13:21.431Z,17.9
2022-08-27T22:23:21.838Z,17.8
2022-08-27T22:33:22.890Z,17.7
2022-08-27T22:43:23.470Z,17.5
2022-08-27T22:53:24.374Z,17.4
2022-08-27T23:03:25.143Z,17.3
2022-08-27T23:13:26.095Z,17.2
2022-08-27T23:23:27.724Z,17
2022-08-27T23:33:27.228Z,16.8
2022-08-27T23:43:27.942Z,16.6
